Time;durP1;ratioP1;P1;durP2;ratioP2;P2;SDS_P1;SDS_P2;PMS_P1;PMS_P2;Temp;Humidity;BMP_temperature;BMP_pressure;BME280_temperature;BME280_humidity;BME280_pressure;Samples;Min_cycle;Max_cycle;Signal;HPM_P1;HPM_P2
2021/12/29 00:00:41;;;;;;;67.18;33.65;;;4.40;99.90;;;;;;5055582;28;20138;-78
2021/12/29 00:03:07;;;;;;;66.05;32.35;;;4.40;99.90;;;;;;5061679;28;20024;-77
2021/12/29 00:05:33;;;;;;;67.93;33.55;;;4.40;99.90;;;;;;5044502;28;20033;-77
2021/12/29 00:07:59;;;;;;;69.82;32.63;;;4.30;99.90;;;;;;5055786;28;20032;-77
2021/12/29 00:10:25;;;;;;;67.07;33.58;;;4.30;99.90;;;;;;5036224;28;20025;-78
2021/12/29 00:12:52;;;;;;;67.07;33.60;;;4.40;99.90;;;;;;5041712;28;20023;-77
2021/12/29 00:15:20;;;;;;;72.93;34.38;;;4.40;99.90;;;;;;5062784;28;20072;-76
2021/12/29 00:17:47;;;;;;;66.05;32.63;;;4.40;99.90;;;;;;5059704;28;20085;-78
2021/12/29 00:20:18;;;;;;;66.20;33.10;;;4.30;99.90;;;;;;5056910;28;20029;-78
2021/12/29 00:22:44;;;;;;;69.70;33.47;;;4.40;99.90;;;;;;5055384;28;20060;-77
2021/12/29 00:25:11;;;;;;;65.10;33.15;;;4.40;99.90;;;;;;5054923;28;20021;-77
2021/12/29 00:27:36;;;;;;;66.07;31.73;;;4.40;99.90;;;;;;5053863;28;20022;-79
2021/12/29 00:30:05;;;;;;;65.18;33.13;;;4.40;99.90;;;;;;5053925;28;20078;-78
2021/12/29 00:32:30;;;;;;;73.57;35.80;;;4.40;99.90;;;;;;5035981;28;20055;-77
2021/12/29 00:34:56;;;;;;;70.25;35.90;;;4.50;99.90;;;;;;5036147;28;20075;-77
2021/12/29 00:37:21;;;;;;;69.95;34.33;;;4.40;99.90;;;;;;5035667;28;20029;-78
2021/12/29 00:39:47;;;;;;;67.55;34.10;;;4.40;99.90;;;;;;5053939;28;20048;-76
2021/12/29 00:42:12;;;;;;;68.10;33.75;;;4.40;99.90;;;;;;5035716;28;20025;-78
2021/12/29 00:44:38;;;;;;;73.85;33.42;;;4.40;99.90;;;;;;5053714;28;20059;-77
2021/12/29 00:47:04;;;;;;;73.35;35.00;;;4.40;99.90;;;;;;5053158;28;20048;-78
2021/12/29 00:49:33;;;;;;;73.30;34.60;;;4.40;99.90;;;;;;5053967;28;20461;-75
2021/12/29 00:52:00;;;;;;;67.32;33.70;;;4.40;99.90;;;;;;5054011;28;20442;-78
2021/12/29 00:54:27;;;;;;;62.83;32.35;;;4.40;99.90;;;;;;5053449;28;20024;-77
2021/12/29 00:56:53;;;;;;;65.70;31.65;;;4.40;99.90;;;;;;5053786;28;20071;-78
2021/12/29 00:59:19;;;;;;;62.08;30.83;;;4.40;99.90;;;;;;5057352;28;20033;-78
2021/12/29 01:01:46;;;;;;;62.30;30.38;;;4.50;99.90;;;;;;5057718;28;20433;-77
2021/12/29 01:04:12;;;;;;;68.20;32.13;;;4.50;99.90;;;;;;5039920;28;20064;-78
2021/12/29 01:06:37;;;;;;;69.97;33.47;;;4.60;99.90;;;;;;5057103;28;20114;-77
2021/12/29 01:09:04;;;;;;;65.72;31.48;;;4.60;99.90;;;;;;5058053;28;20040;-76
2021/12/29 01:11:29;;;;;;;65.82;32.53;;;4.60;99.90;;;;;;5057413;28;20025;-77
2021/12/29 01:13:55;;;;;;;76.63;34.65;;;4.60;99.90;;;;;;5039066;28;20421;-77
2021/12/29 01:19:08;;;;;;;70.00;33.08;;;4.60;99.90;;;;;;5056992;28;20029;-79
2021/12/29 01:21:35;;;;;;;68.35;33.30;;;4.60;99.90;;;;;;5056895;28;20032;-78
2021/12/29 01:24:02;;;;;;;72.70;33.47;;;4.50;99.90;;;;;;5057087;28;20029;-77
2021/12/29 01:26:28;;;;;;;65.20;31.30;;;4.50;99.90;;;;;;5056510;28;20033;-78
2021/12/29 01:28:53;;;;;;;68.32;32.28;;;4.40;99.90;;;;;;5039298;28;20417;-77
2021/12/29 01:31:19;;;;;;;71.65;34.78;;;4.50;99.90;;;;;;5057121;28;20074;-75
2021/12/29 01:33:44;;;;;;;73.45;34.47;;;4.50;99.90;;;;;;5039269;28;20047;-76
2021/12/29 01:36:10;;;;;;;79.13;35.40;;;4.50;99.90;;;;;;5057245;28;20079;-77
2021/12/29 01:38:36;;;;;;;79.93;35.58;;;4.40;99.90;;;;;;5040095;28;20029;-76
2021/12/29 01:41:02;;;;;;;75.78;34.97;;;4.30;99.90;;;;;;5066769;28;20037;-78
2021/12/29 01:43:29;;;;;;;79.50;34.80;;;4.30;99.90;;;;;;5076320;28;20052;-78
2021/12/29 01:45:54;;;;;;;79.55;35.22;;;4.30;99.90;;;;;;5077897;28;20025;-78
2021/12/29 01:48:20;;;;;;;91.63;38.50;;;4.30;99.90;;;;;;5067897;28;20037;-78
2021/12/29 01:50:50;;;;;;;85.45;36.17;;;4.20;99.90;;;;;;5056044;28;20413;-77
2021/12/29 01:53:23;;;;;;;90.75;36.72;;;4.20;99.90;;;;;;5061909;28;20020;-77
2021/12/29 01:55:49;;;;;;;91.90;36.83;;;4.20;99.90;;;;;;5061519;28;20043;-78
2021/12/29 01:58:15;;;;;;;83.00;35.83;;;4.20;99.90;;;;;;5058371;28;20024;-78
2021/12/29 02:00:41;;;;;;;87.80;36.67;;;4.20;99.90;;;;;;5040399;28;20112;-78
2021/12/29 02:03:08;;;;;;;88.20;35.35;;;4.20;99.90;;;;;;5058207;28;20102;-79
2021/12/29 02:05:35;;;;;;;95.13;38.78;;;4.20;99.90;;;;;;5058232;28;20025;-78
2021/12/29 02:08:00;;;;;;;94.88;38.13;;;4.20;99.90;;;;;;5040393;28;20481;-79
2021/12/29 02:10:31;;;;;;;95.65;39.00;;;4.20;99.90;;;;;;5056335;28;20046;-78
2021/12/29 02:13:00;;;;;;;95.50;39.33;;;4.20;99.90;;;;;;5057596;28;20489;-78
2021/12/29 02:15:26;;;;;;;94.72;38.63;;;4.30;99.90;;;;;;5055637;28;20044;-77
2021/12/29 02:17:52;;;;;;;101.03;39.63;;;4.30;99.90;;;;;;5055551;28;20481;-79
2021/12/29 02:20:21;;;;;;;97.03;37.88;;;4.30;99.90;;;;;;5038750;28;20036;-79
2021/12/29 02:23:01;;;;;;;98.95;39.08;;;4.20;99.90;;;;;;5056143;28;20029;-77
2021/12/29 02:25:46;;;;;;;95.15;39.85;;;4.20;99.90;;;;;;5055657;28;20100;-77
2021/12/29 02:28:13;;;;;;;102.30;39.97;;;4.20;99.90;;;;;;5056749;28;20032;-77
2021/12/29 02:30:39;;;;;;;102.50;41.20;;;4.10;99.90;;;;;;5055925;28;20079;-78
2021/12/29 02:33:06;;;;;;;105.25;40.58;;;4.20;99.90;;;;;;5047687;28;20029;-78
2021/12/29 02:35:32;;;;;;;117.88;45.53;;;4.20;99.90;;;;;;5024182;28;20083;-80
2021/12/29 02:37:59;;;;;;;106.38;43.15;;;4.20;99.90;;;;;;5040853;28;20128;-80
2021/12/29 02:40:26;;;;;;;112.60;43.20;;;4.20;99.90;;;;;;5023157;28;20041;-80
2021/12/29 02:42:52;;;;;;;112.53;43.25;;;4.20;99.90;;;;;;5025367;28;20033;-80
2021/12/29 02:45:21;;;;;;;131.15;46.85;;;4.20;99.90;;;;;;5044862;28;20398;-80
2021/12/29 02:47:47;;;;;;;114.80;44.60;;;4.20;99.90;;;;;;5043368;28;20021;-80
2021/12/29 02:50:15;;;;;;;126.68;48.83;;;4.20;99.90;;;;;;5025119;28;20030;-80
2021/12/29 02:52:43;;;;;;;124.95;47.55;;;4.20;99.90;;;;;;5026574;28;20029;-80
2021/12/29 02:55:09;;;;;;;131.07;47.78;;;4.20;99.90;;;;;;5045952;28;20033;-79
2021/12/29 02:57:34;;;;;;;131.15;49.20;;;4.20;99.90;;;;;;5035178;28;20025;-78
2021/12/29 03:00:00;;;;;;;135.30;48.80;;;4.20;99.90;;;;;;5052549;28;20479;-79
2021/12/29 03:02:26;;;;;;;140.27;50.92;;;4.10;99.90;;;;;;5050847;28;20080;-79
2021/12/29 03:04:53;;;;;;;154.05;51.75;;;4.10;99.90;;;;;;5051731;28;20035;-78
2021/12/29 03:07:18;;;;;;;125.25;49.10;;;4.10;99.90;;;;;;5049221;28;20028;-80
2021/12/29 03:09:44;;;;;;;124.30;48.55;;;4.10;99.90;;;;;;5048407;28;20005;-79
2021/12/29 03:12:09;;;;;;;132.80;49.00;;;4.00;99.90;;;;;;5043458;28;20081;-78
2021/12/29 03:14:35;;;;;;;123.03;47.58;;;4.00;99.90;;;;;;5042031;28;20048;-78
2021/12/29 03:17:01;;;;;;;135.50;47.95;;;4.00;99.90;;;;;;5043254;28;20051;-78
2021/12/29 03:19:26;;;;;;;132.63;50.03;;;4.00;99.90;;;;;;5043773;28;20059;-78
2021/12/29 03:21:52;;;;;;;124.28;48.58;;;4.00;99.90;;;;;;5022790;28;20124;-79
2021/12/29 03:24:20;;;;;;;131.27;48.15;;;4.10;99.90;;;;;;5041773;28;20025;-78
2021/12/29 03:26:46;;;;;;;142.10;50.67;;;4.10;99.90;;;;;;5024312;28;20025;-80
2021/12/29 03:29:12;;;;;;;125.88;48.40;;;4.10;99.90;;;;;;5043779;28;20052;-76
2021/12/29 03:31:39;;;;;;;137.85;50.15;;;4.10;99.90;;;;;;5045847;28;20021;-78
2021/12/29 03:34:05;;;;;;;134.85;50.08;;;4.10;99.90;;;;;;5019182;28;20044;-79
2021/12/29 03:36:31;;;;;;;143.85;50.70;;;4.10;99.90;;;;;;5036108;28;20104;-78
2021/12/29 03:38:57;;;;;;;128.98;49.30;;;4.00;99.90;;;;;;5054559;28;20045;-80
2021/12/29 03:41:24;;;;;;;144.00;51.88;;;4.00;99.90;;;;;;5037228;28;20108;-79
2021/12/29 03:43:50;;;;;;;139.32;50.53;;;4.00;99.90;;;;;;5036829;28;20032;-78
2021/12/29 03:46:16;;;;;;;141.50;51.47;;;4.00;99.90;;;;;;5035611;28;20486;-79
2021/12/29 03:48:43;;;;;;;125.95;47.92;;;4.00;99.90;;;;;;5035287;28;20036;-79
2021/12/29 03:51:09;;;;;;;135.10;50.30;;;4.00;99.90;;;;;;5018908;28;20021;-78
2021/12/29 03:53:35;;;;;;;132.43;49.75;;;4.00;99.90;;;;;;5036362;28;20017;-78
2021/12/29 03:56:01;;;;;;;128.60;49.55;;;4.00;99.90;;;;;;5034610;28;20092;-78
2021/12/29 03:58:28;;;;;;;134.15;50.30;;;4.00;99.90;;;;;;5034957;28;20073;-78
2021/12/29 04:01:09;;;;;;;129.63;48.88;;;3.90;99.90;;;;;;5035009;28;20029;-77
2021/12/29 04:03:35;;;;;;;126.82;46.85;;;3.90;99.90;;;;;;5017678;28;20063;-78
2021/12/29 04:06:01;;;;;;;122.55;47.85;;;3.90;99.90;;;;;;5017084;28;20057;-78
2021/12/29 04:08:27;;;;;;;135.98;49.40;;;4.00;99.90;;;;;;5036095;28;20052;-77
2021/12/29 04:10:53;;;;;;;130.55;49.58;;;3.90;99.90;;;;;;5034924;28;20100;-78
2021/12/29 04:13:18;;;;;;;125.47;47.97;;;4.00;99.90;;;;;;5037223;28;20107;-78
2021/12/29 04:15:44;;;;;;;115.15;47.35;;;3.90;99.90;;;;;;5026784;28;20044;-78
2021/12/29 04:18:17;;;;;;;123.97;48.72;;;3.90;99.90;;;;;;5036052;28;20033;-78
2021/12/29 04:20:57;;;;;;;126.47;48.50;;;3.90;99.90;;;;;;5047233;28;20031;-79
2021/12/29 04:23:28;;;;;;;120.32;47.85;;;3.90;99.90;;;;;;5028926;28;20029;-79
2021/12/29 04:25:55;;;;;;;117.35;47.53;;;4.00;99.90;;;;;;5040731;28;20371;-79
2021/12/29 04:28:25;;;;;;;115.85;48.15;;;4.00;99.90;;;;;;5038410;28;20123;-79
2021/12/29 04:30:56;;;;;;;108.15;44.55;;;4.10;99.90;;;;;;5035024;28;20108;-78
2021/12/29 04:33:23;;;;;;;111.50;45.92;;;4.10;99.90;;;;;;5017133;28;20018;-77
2021/12/29 04:35:49;;;;;;;109.13;44.97;;;4.20;99.90;;;;;;5034653;28;20036;-78
2021/12/29 04:38:15;;;;;;;110.75;45.83;;;4.20;99.90;;;;;;5035560;28;20034;-78
2021/12/29 04:40:42;;;;;;;107.88;45.25;;;4.30;99.90;;;;;;5035202;28;20474;-79
2021/12/29 04:43:07;;;;;;;116.35;49.13;;;4.30;99.90;;;;;;5035080;28;20025;-79
2021/12/29 04:45:33;;;;;;;109.95;45.97;;;4.30;99.90;;;;;;5016653;28;20025;-78
2021/12/29 04:48:00;;;;;;;106.90;43.25;;;4.30;99.90;;;;;;5016426;28;20029;-75
2021/12/29 04:50:36;;;;;;;105.28;45.35;;;4.30;99.90;;;;;;5032834;28;20026;-75
2021/12/29 04:53:04;;;;;;;107.60;44.80;;;4.30;99.90;;;;;;5033507;28;20014;-76
2021/12/29 04:55:31;;;;;;;110.78;45.15;;;4.40;99.90;;;;;;5033167;28;20045;-75
2021/12/29 04:57:58;;;;;;;103.45;44.78;;;4.40;99.90;;;;;;5016083;28;20029;-77
2021/12/29 05:00:26;;;;;;;108.72;46.88;;;4.30;99.90;;;;;;5035193;28;20026;-78
2021/12/29 05:02:53;;;;;;;109.60;44.78;;;4.30;99.90;;;;;;5039306;28;20029;-79
2021/12/29 05:10:32;;;;;;;100.72;43.95;;;4.30;99.90;;;;;;5047070;28;20056;-79
2021/12/29 05:12:58;;;;;;;103.05;44.63;;;4.30;99.90;;;;;;5037813;28;20022;-79
2021/12/29 05:15:23;;;;;;;106.13;44.17;;;4.40;99.90;;;;;;5035749;28;20061;-79
2021/12/29 05:17:51;;;;;;;106.18;44.40;;;4.40;99.90;;;;;;5043831;28;20036;-78
2021/12/29 05:20:16;;;;;;;110.13;44.67;;;4.40;99.90;;;;;;5025491;28;20026;-78
2021/12/29 05:22:42;;;;;;;103.32;43.97;;;4.40;99.90;;;;;;5024144;28;20026;-77
2021/12/29 05:25:07;;;;;;;100.63;43.42;;;4.50;99.90;;;;;;5042320;28;20026;-78
2021/12/29 05:27:33;;;;;;;104.68;44.50;;;4.50;99.90;;;;;;5021860;28;20124;-78
2021/12/29 05:30:02;;;;;;;93.88;42.33;;;4.50;99.90;;;;;;5018666;28;20018;-77
2021/12/29 05:32:30;;;;;;;106.75;45.80;;;4.50;99.90;;;;;;5035004;28;20049;-78
2021/12/29 05:34:56;;;;;;;99.05;43.50;;;4.50;99.90;;;;;;5033557;28;20067;-78
2021/12/29 05:37:22;;;;;;;103.82;44.38;;;4.50;99.90;;;;;;5033056;28;20227;-78
2021/12/29 05:39:47;;;;;;;108.78;46.15;;;4.50;99.90;;;;;;5035311;28;20471;-78
2021/12/29 05:42:13;;;;;;;101.00;43.20;;;4.50;99.90;;;;;;5037097;28;20040;-78
2021/12/29 05:44:39;;;;;;;102.70;45.42;;;4.50;99.90;;;;;;5038797;28;20030;-79
2021/12/29 05:47:04;;;;;;;101.65;44.22;;;4.50;99.90;;;;;;5048253;28;20022;-79
2021/12/29 05:49:30;;;;;;;101.28;44.10;;;4.50;99.90;;;;;;5047458;28;20033;-79
2021/12/29 05:51:55;;;;;;;106.25;44.60;;;4.50;99.90;;;;;;5044698;28;20049;-80
2021/12/29 05:54:21;;;;;;;105.68;44.72;;;4.40;99.90;;;;;;5044801;28;20013;-79
2021/12/29 05:56:47;;;;;;;104.20;44.38;;;4.40;99.90;;;;;;5059053;28;20029;-79
2021/12/29 05:59:12;;;;;;;106.63;44.70;;;4.40;99.90;;;;;;5050368;28;20025;-78
2021/12/29 06:01:39;;;;;;;103.00;44.45;;;4.40;99.90;;;;;;5022732;28;20026;-78
2021/12/29 06:04:05;;;;;;;104.35;44.85;;;4.40;99.90;;;;;;5039159;28;20025;-79
2021/12/29 06:06:31;;;;;;;111.97;45.42;;;4.50;99.90;;;;;;5038400;28;20462;-78
2021/12/29 06:08:57;;;;;;;104.32;43.83;;;4.50;99.90;;;;;;5021648;28;20120;-79
2021/12/29 06:11:22;;;;;;;102.28;45.28;;;4.50;99.90;;;;;;5039014;28;20026;-78
2021/12/29 06:13:48;;;;;;;104.05;44.25;;;4.50;99.90;;;;;;5038823;28;20029;-76
2021/12/29 06:16:14;;;;;;;104.32;44.50;;;4.50;99.90;;;;;;5036165;28;20078;-77
2021/12/29 06:18:39;;;;;;;102.03;45.53;;;4.50;99.90;;;;;;5037460;28;20108;-77
2021/12/29 06:21:05;;;;;;;101.10;44.88;;;4.60;99.90;;;;;;5040314;28;20037;-79
2021/12/29 06:23:30;;;;;;;103.00;44.25;;;4.50;99.90;;;;;;5025929;28;20032;-77
2021/12/29 06:25:56;;;;;;;98.30;42.88;;;4.50;99.90;;;;;;5042180;28;20517;-77
2021/12/29 06:28:22;;;;;;;99.18;44.72;;;4.50;99.90;;;;;;5041659;28;20052;-79
2021/12/29 06:30:48;;;;;;;103.93;43.70;;;4.50;99.90;;;;;;5051105;28;20018;-78
2021/12/29 06:33:14;;;;;;;103.53;46.10;;;4.50;99.90;;;;;;5050933;28;20053;-77
2021/12/29 06:35:39;;;;;;;106.30;47.08;;;4.40;99.90;;;;;;5037169;28;20006;-78
2021/12/29 06:38:05;;;;;;;104.38;44.63;;;4.40;99.90;;;;;;5050704;28;20048;-78
2021/12/29 06:40:31;;;;;;;95.20;43.25;;;4.40;99.90;;;;;;5027294;28;20033;-77
2021/12/29 06:42:56;;;;;;;109.07;46.67;;;4.40;99.90;;;;;;5040335;28;20087;-77
2021/12/29 06:45:22;;;;;;;107.30;45.45;;;4.40;99.90;;;;;;5052878;28;20033;-76
2021/12/29 06:47:48;;;;;;;104.30;45.42;;;4.40;99.90;;;;;;5020026;28;20497;-78
2021/12/29 06:50:13;;;;;;;104.95;46.47;;;4.50;99.90;;;;;;5036420;28;20143;-78
2021/12/29 06:52:39;;;;;;;94.65;42.38;;;4.50;99.90;;;;;;5017510;28;20022;-77
2021/12/29 06:55:05;;;;;;;109.18;45.30;;;4.50;99.90;;;;;;5035518;28;20121;-78
2021/12/29 06:57:31;;;;;;;104.68;45.25;;;4.50;99.90;;;;;;5034706;28;20041;-78
2021/12/29 06:59:56;;;;;;;101.40;44.78;;;4.50;99.90;;;;;;5036820;28;20638;-78
2021/12/29 07:02:22;;;;;;;102.95;44.72;;;4.50;99.90;;;;;;5037082;28;20026;-78
2021/12/29 07:04:48;;;;;;;102.88;44.35;;;4.50;99.90;;;;;;5036139;28;20112;-77
2021/12/29 07:07:13;;;;;;;105.05;45.55;;;4.60;99.90;;;;;;5035754;28;20025;-79
2021/12/29 07:09:39;;;;;;;110.18;47.45;;;4.60;99.90;;;;;;5037127;28;20429;-79
2021/12/29 07:12:05;;;;;;;103.22;45.45;;;4.60;99.90;;;;;;5035577;28;20033;-78
2021/12/29 07:14:30;;;;;;;97.22;44.05;;;4.60;99.90;;;;;;5035555;28;20491;-77
2021/12/29 07:16:56;;;;;;;107.10;45.75;;;4.60;99.90;;;;;;5034535;28;20048;-77
2021/12/29 07:19:22;;;;;;;103.50;45.53;;;4.60;99.90;;;;;;5042591;28;20505;-78
2021/12/29 07:21:49;;;;;;;117.40;47.13;;;4.60;99.90;;;;;;5054521;28;20417;-78
2021/12/29 07:24:16;;;;;;;105.70;46.10;;;4.60;99.90;;;;;;5055457;28;20033;-78
2021/12/29 07:26:42;;;;;;;111.90;46.67;;;4.60;99.90;;;;;;5054846;28;20115;-78
2021/12/29 07:29:08;;;;;;;110.13;47.38;;;4.60;99.90;;;;;;5058065;28;20652;-78
2021/12/29 07:31:34;;;;;;;101.95;44.90;;;4.60;99.90;;;;;;5058315;28;20108;-79
2021/12/29 07:34:00;;;;;;;109.55;45.67;;;4.60;99.90;;;;;;5058701;28;20049;-79
2021/12/29 07:36:25;;;;;;;108.88;46.40;;;4.60;99.90;;;;;;5040288;28;20040;-79
2021/12/29 07:38:51;;;;;;;104.10;43.38;;;4.60;99.90;;;;;;5038621;28;20033;-78
2021/12/29 07:41:17;;;;;;;102.53;45.10;;;4.60;99.90;;;;;;5056637;28;20033;-77
2021/12/29 07:43:43;;;;;;;112.30;46.80;;;4.60;99.90;;;;;;5056367;28;20354;-77
2021/12/29 07:46:10;;;;;;;101.82;44.80;;;4.60;99.90;;;;;;5056662;28;20059;-78
2021/12/29 07:48:36;;;;;;;102.47;45.00;;;4.60;99.90;;;;;;5039531;28;20051;-77
2021/12/29 07:51:05;;;;;;;112.53;46.13;;;4.60;99.90;;;;;;5057303;28;20021;-77
2021/12/29 07:53:31;;;;;;;107.63;46.03;;;4.60;99.90;;;;;;5055781;28;20028;-78
2021/12/29 07:55:56;;;;;;;111.13;46.58;;;4.70;99.90;;;;;;5061035;28;20029;-77
2021/12/29 07:58:22;;;;;;;108.07;47.28;;;4.60;99.90;;;;;;5061307;28;20274;-77
2021/12/29 08:00:49;;;;;;;108.03;46.67;;;4.60;99.90;;;;;;5058569;28;20025;-78
2021/12/29 08:03:15;;;;;;;110.13;47.03;;;4.60;99.90;;;;;;5037602;28;20116;-79
2021/12/29 08:05:41;;;;;;;105.95;46.60;;;4.60;99.90;;;;;;5056518;28;20032;-79
2021/12/29 08:08:07;;;;;;;117.50;47.70;;;4.60;99.90;;;;;;5054873;28;20033;-78
2021/12/29 08:10:34;;;;;;;110.18;46.65;;;4.60;99.90;;;;;;5054452;28;20040;-77
2021/12/29 08:13:00;;;;;;;103.60;45.35;;;4.70;99.90;;;;;;5037290;28;20036;-80
2021/12/29 08:15:26;;;;;;;108.03;47.20;;;4.70;99.90;;;;;;5054867;28;20024;-77
2021/12/29 08:17:51;;;;;;;103.65;46.83;;;4.70;99.90;;;;;;5037607;28;20092;-78
2021/12/29 08:20:17;;;;;;;109.10;46.58;;;4.70;99.90;;;;;;5059498;28;20021;-80
2021/12/29 08:22:43;;;;;;;107.15;45.63;;;4.70;99.90;;;;;;5050383;28;20025;-77
2021/12/29 08:25:09;;;;;;;108.57;46.22;;;4.70;99.90;;;;;;5069033;28;20025;-78
2021/12/29 08:27:34;;;;;;;106.15;45.75;;;4.70;99.90;;;;;;5069351;28;20102;-77
2021/12/29 08:30:00;;;;;;;101.35;45.13;;;4.70;99.90;;;;;;5067665;28;20032;-77
2021/12/29 08:32:26;;;;;;;107.30;45.92;;;4.70;99.90;;;;;;5056502;28;20036;-77
2021/12/29 08:34:53;;;;;;;100.93;45.35;;;4.70;99.90;;;;;;5073381;28;20017;-78
2021/12/29 08:37:18;;;;;;;112.78;46.63;;;4.70;99.90;;;;;;5057584;28;20037;-80
2021/12/29 08:39:45;;;;;;;101.53;46.15;;;4.70;99.90;;;;;;5076517;28;20048;-78
2021/12/29 08:42:12;;;;;;;119.70;48.85;;;4.70;99.90;;;;;;5075012;28;20063;-78
2021/12/29 08:44:38;;;;;;;110.43;47.97;;;4.70;99.90;;;;;;5071417;28;20025;-79
2021/12/29 08:47:04;;;;;;;110.10;46.10;;;4.70;99.90;;;;;;5050998;28;20052;-78
2021/12/29 08:49:30;;;;;;;112.82;47.28;;;4.70;99.90;;;;;;5050725;28;20056;-78
2021/12/29 08:51:57;;;;;;;106.85;45.83;;;4.80;99.90;;;;;;5065642;28;20029;-79
2021/12/29 08:54:23;;;;;;;106.95;47.25;;;4.80;99.90;;;;;;5066780;28;20032;-78
2021/12/29 08:56:50;;;;;;;100.85;45.33;;;4.90;99.90;;;;;;5061516;28;20023;-75
2021/12/29 08:59:16;;;;;;;109.13;46.20;;;4.90;99.90;;;;;;5059204;28;20028;-76
2021/12/29 09:01:41;;;;;;;107.68;46.70;;;4.90;99.90;;;;;;5060545;28;20036;-76
2021/12/29 09:04:07;;;;;;;105.88;45.05;;;4.90;99.90;;;;;;5064350;28;20028;-76
2021/12/29 09:06:34;;;;;;;104.72;46.80;;;4.90;99.90;;;;;;5056593;28;20070;-76
2021/12/29 09:09:00;;;;;;;103.88;45.97;;;4.90;99.90;;;;;;5059493;28;20083;-76
2021/12/29 09:11:25;;;;;;;129.15;55.65;;;4.90;99.90;;;;;;5060172;28;20017;-76
2021/12/29 09:13:53;;;;;;;114.30;49.40;;;4.90;99.90;;;;;;5062244;28;20028;-75
2021/12/29 09:16:19;;;;;;;102.78;46.42;;;5.00;99.90;;;;;;5056893;28;20017;-76
2021/12/29 09:18:45;;;;;;;102.45;45.67;;;5.00;99.90;;;;;;5056135;28;20029;-78
2021/12/29 09:21:14;;;;;;;105.57;45.88;;;4.90;99.90;;;;;;5059467;28;20119;-76
2021/12/29 09:23:41;;;;;;;112.60;48.65;;;4.90;99.90;;;;;;5058994;28;20025;-78
2021/12/29 09:26:09;;;;;;;107.05;48.03;;;4.90;99.90;;;;;;5041987;28;20036;-78
2021/12/29 09:28:35;;;;;;;112.13;48.70;;;4.90;99.90;;;;;;5059017;28;20036;-79
2021/12/29 09:31:01;;;;;;;115.22;49.55;;;4.80;99.90;;;;;;5060603;28;20063;-78
2021/12/29 09:33:26;;;;;;;112.80;46.92;;;4.80;99.90;;;;;;5026915;28;20068;-79
2021/12/29 09:35:57;;;;;;;113.22;47.45;;;4.90;99.90;;;;;;5021472;28;20028;-79
2021/12/29 09:38:23;;;;;;;115.15;48.42;;;4.90;99.90;;;;;;5038625;28;20312;-78
2021/12/29 09:40:49;;;;;;;110.72;47.20;;;4.90;99.90;;;;;;5038920;28;20037;-78
2021/12/29 09:43:16;;;;;;;117.35;51.30;;;5.00;99.90;;;;;;5024695;28;20448;-79
2021/12/29 09:45:43;;;;;;;120.32;50.80;;;5.00;99.90;;;;;;5051981;28;20083;-78
2021/12/29 09:48:09;;;;;;;106.35;46.83;;;5.00;99.90;;;;;;5055479;28;20033;-77
2021/12/29 09:50:36;;;;;;;117.03;48.75;;;5.00;99.90;;;;;;5038884;28;20022;-78
2021/12/29 09:53:02;;;;;;;113.28;48.80;;;5.10;99.90;;;;;;5040188;28;20049;-77
2021/12/29 09:55:28;;;;;;;112.75;47.83;;;5.00;99.90;;;;;;5051688;28;20022;-78
2021/12/29 09:57:57;;;;;;;104.35;47.55;;;5.00;99.90;;;;;;5057132;28;20068;-79
2021/12/29 10:00:29;;;;;;;110.57;49.00;;;5.00;99.90;;;;;;5052861;28;20025;-79
2021/12/29 10:02:56;;;;;;;114.20;48.25;;;5.10;99.90;;;;;;5040357;28;20033;-78
2021/12/29 10:05:24;;;;;;;115.47;48.40;;;5.10;99.90;;;;;;5024084;28;20392;-79
2021/12/29 10:08:19;;;;;;;113.60;49.28;;;5.10;99.90;;;;;;5053726;28;20089;-80
2021/12/29 10:10:53;;;;;;;109.15;47.85;;;5.10;99.90;;;;;;5054271;28;20014;-78
2021/12/29 10:13:19;;;;;;;115.80;49.03;;;5.00;99.90;;;;;;5040497;28;20084;-77
2021/12/29 10:15:54;;;;;;;116.07;50.63;;;5.00;99.90;;;;;;5023124;28;20034;-79
2021/12/29 10:18:26;;;;;;;112.07;48.80;;;5.00;99.90;;;;;;5040641;28;20029;-78
2021/12/29 10:21:02;;;;;;;115.88;48.25;;;5.10;99.90;;;;;;5038765;28;20030;-79
2021/12/29 10:23:31;;;;;;;114.75;48.35;;;5.10;99.90;;;;;;5043346;28;20021;-79
2021/12/29 10:26:08;;;;;;;124.15;49.38;;;5.10;99.90;;;;;;5038659;28;20105;-78
2021/12/29 10:28:36;;;;;;;123.07;50.88;;;5.10;99.90;;;;;;5037845;28;20029;-78
2021/12/29 10:31:11;;;;;;;120.72;50.00;;;5.10;99.90;;;;;;5037511;28;20147;-78
2021/12/29 10:33:46;;;;;;;132.10;51.00;;;5.10;99.90;;;;;;5044273;28;20033;-78
2021/12/29 10:36:20;;;;;;;130.80;51.58;;;5.10;99.90;;;;;;5038850;28;20048;-75
2021/12/29 10:38:51;;;;;;;127.28;50.20;;;5.10;99.90;;;;;;5036613;28;20033;-77
2021/12/29 10:41:17;;;;;;;121.60;49.85;;;5.10;99.90;;;;;;5037401;28;20029;-79
2021/12/29 10:43:59;;;;;;;121.72;49.28;;;5.10;99.90;;;;;;5038642;28;20040;-76
2021/12/29 10:46:27;;;;;;;131.57;51.83;;;5.20;99.90;;;;;;5042793;28;20029;-76
2021/12/29 10:48:54;;;;;;;116.47;48.92;;;5.20;99.90;;;;;;5019792;28;20116;-78
2021/12/29 10:51:30;;;;;;;134.60;52.83;;;5.20;99.90;;;;;;5018922;28;20034;-76
2021/12/29 10:54:14;;;;;;;122.25;48.97;;;5.20;99.90;;;;;;5036501;28;20040;-76
2021/12/29 10:56:44;;;;;;;134.63;51.53;;;5.30;99.90;;;;;;5018785;28;20045;-76
2021/12/29 10:59:20;;;;;;;128.50;51.63;;;5.20;99.90;;;;;;5036018;28;20104;-77
2021/12/29 11:01:47;;;;;;;128.98;49.95;;;5.20;99.90;;;;;;5021828;28;20030;-78
2021/12/29 11:04:14;;;;;;;136.43;51.80;;;5.20;99.90;;;;;;5030546;28;20056;-78
2021/12/29 11:06:43;;;;;;;138.48;51.85;;;5.20;99.90;;;;;;5021148;28;20036;-79
2021/12/29 11:09:10;;;;;;;135.38;52.80;;;5.30;99.90;;;;;;5043160;28;20028;-80
2021/12/29 11:11:39;;;;;;;135.20;51.75;;;5.30;99.90;;;;;;5045475;28;20029;-80
2021/12/29 11:14:13;;;;;;;134.52;51.15;;;5.30;99.90;;;;;;5025928;28;20020;-79
2021/12/29 11:16:39;;;;;;;142.77;50.63;;;5.40;99.90;;;;;;5047259;28;20112;-79
2021/12/29 11:19:06;;;;;;;143.38;51.13;;;5.40;99.90;;;;;;5029238;28;20033;-79
2021/12/29 11:21:37;;;;;;;150.57;52.92;;;5.30;99.90;;;;;;5045287;28;20030;-80
2021/12/29 11:24:23;;;;;;;138.75;49.92;;;5.30;99.90;;;;;;5038268;28;20021;-79
2021/12/29 11:26:50;;;;;;;140.40;52.25;;;5.40;99.90;;;;;;5044577;28;20025;-78
2021/12/29 11:29:19;;;;;;;145.73;52.00;;;5.30;99.90;;;;;;5038230;28;20025;-79
2021/12/29 11:32:00;;;;;;;143.13;51.30;;;5.40;99.90;;;;;;5041580;28;20047;-79
2021/12/29 11:34:28;;;;;;;138.30;51.70;;;5.40;99.90;;;;;;5040947;28;20021;-79
2021/12/29 11:37:08;;;;;;;132.32;49.80;;;5.40;99.90;;;;;;5050312;28;20088;-78
2021/12/29 11:39:39;;;;;;;137.10;52.30;;;5.40;99.90;;;;;;5030982;28;20037;-77
2021/12/29 11:42:05;;;;;;;147.10;52.90;;;5.50;99.90;;;;;;5045059;28;20029;-78
2021/12/29 11:44:31;;;;;;;133.73;49.33;;;5.50;99.90;;;;;;5032326;28;20048;-78
2021/12/29 11:46:56;;;;;;;127.38;50.25;;;5.50;99.90;;;;;;5042461;28;20029;-78
2021/12/29 11:49:22;;;;;;;136.20;50.38;;;5.60;99.90;;;;;;5038812;28;20140;-78
2021/12/29 11:52:09;;;;;;;139.75;52.42;;;5.60;99.90;;;;;;5043679;28;20470;-79
2021/12/29 11:55:02;;;;;;;143.38;53.72;;;5.60;99.90;;;;;;5040119;28;20069;-78
2021/12/29 11:57:31;;;;;;;143.60;50.85;;;5.60;99.90;;;;;;5020719;28;20509;-79
2021/12/29 12:00:12;;;;;;;133.32;51.30;;;5.60;99.90;;;;;;5023396;28;20025;-80
2021/12/29 12:02:39;;;;;;;134.48;50.40;;;5.60;99.90;;;;;;5025042;28;20028;-79
2021/12/29 12:05:12;;;;;;;145.38;52.05;;;5.60;99.90;;;;;;5022699;28;20025;-78
2021/12/29 12:07:39;;;;;;;136.13;50.30;;;5.60;99.90;;;;;;5038145;28;20025;-78
2021/12/29 12:10:11;;;;;;;135.95;50.72;;;5.60;99.90;;;;;;5022668;28;20026;-80
2021/12/29 12:12:44;;;;;;;150.60;54.20;;;5.60;99.90;;;;;;5038782;28;20032;-78
2021/12/29 12:15:11;;;;;;;130.60;50.03;;;5.60;99.90;;;;;;5025101;28;20052;-78
2021/12/29 12:17:38;;;;;;;128.13;48.20;;;5.60;99.90;;;;;;5037680;28;20013;-78
2021/12/29 12:20:06;;;;;;;138.52;52.92;;;5.70;99.90;;;;;;5036270;28;20033;-78
2021/12/29 12:22:49;;;;;;;141.88;51.80;;;5.70;99.90;;;;;;5038091;28;20026;-79
2021/12/29 12:25:31;;;;;;;136.15;51.65;;;5.70;99.90;;;;;;5019847;28;20021;-78
2021/12/29 12:28:02;;;;;;;137.50;51.63;;;5.80;99.90;;;;;;5036249;28;20037;-78
2021/12/29 12:30:42;;;;;;;137.75;50.72;;;5.60;99.90;;;;;;5035761;28;20104;-77
2021/12/29 12:33:17;;;;;;;148.43;53.35;;;5.60;99.90;;;;;;5018627;28;20074;-79
2021/12/29 12:35:49;;;;;;;139.88;52.55;;;5.60;99.90;;;;;;5019861;28;20079;-79
2021/12/29 12:38:32;;;;;;;136.95;50.95;;;5.50;99.90;;;;;;5019209;28;20036;-78